Terminal Aerodrome Forecast
Issued by NWS Cleveland, OH

Home | Current Version | Previous Version | Text Only | Print | Product List | Glossary On
Versions: 1 2 3 4 5 6 7 8 9 10 11 12 13 14 15 16 17 18 19 20 21 22 23 24
000
FTUS41 KCLE 161947 AAB
TAFERI
TAF AMD
KERI 161947Z 1620/1718 36004KT 2SM -SN BR OVC015
      TEMPO 1620/1621 1SM -SN BR OVC008
     FM162100 03004KT 4SM -SN BR OVC015
     FM162200 03004KT 6SM -SN BR OVC020
     FM170100 03004KT P6SM OVC025
     FM170600 10006KT P6SM OVC015=

USA.gov is the U.S. government's official web portal to all federal, state and local government web resources and services.